createdAt,value
2022-10-30T00:01:44.616Z,14.27
2022-10-30T00:04:11.044Z,11.68
2022-10-30T00:06:43.613Z,13.30
2022-10-30T00:09:10.753Z,12.15
2022-10-30T00:11:59.137Z,15.30
2022-10-30T00:14:25.659Z,11.52
2022-10-30T00:16:51.978Z,14.75
2022-10-30T00:19:18.421Z,14.53
2022-10-30T00:21:44.811Z,14.77
2022-10-30T00:24:12.298Z,13.90
2022-10-30T00:26:53.055Z,13.18
2022-10-30T00:29:26.336Z,10.52
2022-10-30T00:31:53.691Z,12.17
2022-10-30T00:34:20.489Z,14.95
2022-10-30T00:36:46.924Z,13.43
2022-10-30T00:39:27.692Z,9.40
2022-10-30T00:42:14.635Z,15.48
2022-10-30T00:44:44.919Z,10.07
2022-10-30T00:47:23.671Z,11.90
2022-10-30T00:49:58.223Z,11.52
2022-10-30T00:52:34.428Z,13.13
2022-10-30T00:55:07.587Z,12.00
2022-10-30T00:57:42.822Z,12.87
2022-10-30T01:00:10.886Z,10.25
2022-10-30T01:02:39.089Z,12.30
2022-10-30T01:05:21.791Z,11.40
2022-10-30T01:07:48.170Z,12.15
2022-10-30T01:10:22.466Z,13.17
2022-10-30T01:12:54.036Z,11.80
2022-10-30T01:15:53.602Z,13.70
2022-10-30T01:18:29.898Z,13.88
2022-10-30T01:21:11.912Z,12.10
2022-10-30T01:24:24.081Z,11.47
2022-10-30T01:27:22.815Z,11.63
2022-10-30T01:30:19.583Z,14.80
2022-10-30T01:33:02.681Z,12.57
2022-10-30T01:35:49.471Z,10.65
2022-10-30T01:38:23.902Z,10.63
2022-10-30T01:40:52.367Z,15.55
2022-10-30T01:43:35.133Z,12.77
2022-10-30T01:46:47.245Z,13.95
2022-10-30T01:49:56.681Z,9.32
2022-10-30T01:52:49.494Z,10.67
2022-10-30T01:55:26.319Z,11.35
2022-10-30T01:58:08.093Z,11.65
2022-10-30T02:00:36.260Z,10.43
2022-10-30T02:03:06.886Z,16.40
2022-10-30T02:05:43.354Z,13.60
2022-10-30T02:08:24.300Z,12.68
2022-10-30T02:10:59.150Z,12.35
2022-10-30T02:13:36.866Z,13.07
2022-10-30T02:16:15.657Z,10.52
2022-10-30T02:18:42.670Z,9.90
2022-10-30T02:21:15.019Z,12.98
2022-10-30T02:23:41.476Z,14.63
2022-10-30T02:26:13.522Z,11.10
2022-10-30T02:28:46.076Z,12.02
2022-10-30T02:31:31.743Z,11.37
2022-10-30T02:34:13.614Z,12.57
2022-10-30T02:36:39.999Z,14.77
2022-10-30T02:39:18.055Z,9.63
2022-10-30T02:41:49.833Z,15.13
2022-10-30T02:44:17.303Z,14.40
2022-10-30T02:47:11.484Z,13.63
2022-10-30T02:49:40.192Z,11.32
2022-10-30T02:52:13.490Z,12.85
2022-10-30T02:54:39.850Z,12.55
2022-10-30T02:57:14.078Z,15.33
2022-10-30T02:59:40.457Z,13.00
2022-10-30T03:02:06.896Z,10.95
2022-10-30T03:04:33.314Z,11.85
2022-10-30T03:06:59.700Z,10.88
2022-10-30T03:09:27.100Z,9.97
2022-10-30T03:11:53.460Z,10.40
2022-10-30T03:14:19.912Z,13.15
2022-10-30T03:16:46.282Z,15.25
2022-10-30T03:19:12.664Z,10.60
2022-10-30T03:21:47.053Z,9.30
2022-10-30T03:24:13.646Z,13.75
2022-10-30T03:26:40.024Z,11.32
2022-10-30T03:29:06.387Z,13.57
2022-10-30T03:31:34.945Z,13.32
2022-10-30T03:34:11.725Z,13.47
2022-10-30T03:36:38.103Z,9.45
2022-10-30T03:39:07.905Z,11.20
2022-10-30T03:41:39.424Z,11.88
2022-10-30T03:44:05.777Z,10.13
2022-10-30T03:46:32.177Z,15.33
2022-10-30T03:48:59.756Z,11.73
2022-10-30T03:51:26.243Z,14.75
2022-10-30T03:53:54.688Z,13.57
2022-10-30T03:56:31.174Z,12.00
2022-10-30T03:58:57.567Z,14.93
2022-10-30T04:01:26.162Z,10.90
2022-10-30T04:03:52.890Z,10.40
2022-10-30T04:06:19.287Z,12.13
2022-10-30T04:08:54.936Z,12.40
2022-10-30T04:11:22.338Z,12.60
2022-10-30T04:13:48.787Z,12.40
2022-10-30T04:16:15.430Z,10.50
2022-10-30T04:18:41.829Z,13.02
2022-10-30T04:21:08.214Z,9.85
2022-10-30T04:23:34.763Z,13.80
2022-10-30T04:26:19.588Z,12.13
2022-10-30T04:28:58.471Z,12.93
2022-10-30T04:31:24.855Z,12.23
2022-10-30T04:33:51.312Z,13.80
2022-10-30T04:36:19.958Z,13.20
2022-10-30T04:38:50.506Z,12.52
2022-10-30T04:41:36.296Z,17.95
2022-10-30T04:44:07.769Z,14.70
2022-10-30T04:46:41.483Z,11.05
2022-10-30T04:49:07.956Z,16.30
2022-10-30T04:51:42.827Z,14.07
2022-10-30T04:54:09.275Z,13.35
2022-10-30T04:56:35.750Z,11.82
2022-10-30T04:59:13.532Z,14.30
2022-10-30T05:01:51.256Z,15.23
2022-10-30T05:04:17.719Z,11.05
2022-10-30T05:06:44.158Z,11.65
2022-10-30T05:09:18.768Z,12.05
2022-10-30T05:12:04.596Z,11.65
2022-10-30T05:14:36.539Z,14.20
2022-10-30T05:17:47.748Z,14.15
2022-10-30T05:20:27.802Z,12.40
2022-10-30T05:22:57.661Z,14.80
2022-10-30T05:25:25.759Z,9.48
2022-10-30T05:28:01.874Z,10.90
2022-10-30T05:30:32.692Z,10.98
2022-10-30T05:33:05.124Z,11.55
2022-10-30T05:35:33.082Z,13.30
2022-10-30T05:38:03.758Z,13.90
2022-10-30T05:40:36.033Z,11.23
2022-10-30T05:43:35.739Z,12.88
2022-10-30T05:46:03.223Z,13.40
2022-10-30T05:48:29.743Z,13.43
2022-10-30T05:51:27.382Z,10.25
2022-10-30T05:53:53.820Z,13.77
2022-10-30T05:56:20.219Z,12.07
2022-10-30T05:58:49.878Z,12.85
2022-10-30T06:01:16.582Z,11.82
2022-10-30T06:03:48.190Z,16.20
2022-10-30T06:06:14.684Z,11.37
2022-10-30T06:08:46.919Z,17.45
2022-10-30T06:11:16.331Z,14.40
2022-10-30T06:13:51.904Z,13.55
2022-10-30T06:16:36.911Z,15.70
2022-10-30T06:19:07.495Z,15.50
2022-10-30T06:21:34.019Z,12.02
2022-10-30T06:24:13.193Z,11.70
2022-10-30T06:26:40.306Z,14.05
2022-10-30T06:29:34.840Z,13.65
2022-10-30T06:32:05.536Z,17.20
2022-10-30T06:34:33.283Z,15.27
2022-10-30T06:37:11.470Z,11.68
2022-10-30T06:39:50.212Z,12.45
2022-10-30T06:42:16.823Z,13.43
2022-10-30T06:44:43.293Z,14.70
2022-10-30T06:47:09.831Z,11.82
2022-10-30T06:49:37.605Z,16.10
2022-10-30T06:52:04.367Z,12.77
2022-10-30T06:54:39.163Z,12.45
2022-10-30T06:57:05.611Z,13.67
2022-10-30T06:59:32.078Z,11.38
2022-10-30T07:02:00.465Z,14.77
2022-10-30T07:04:28.179Z,11.43
2022-10-30T07:07:17.928Z,12.93
2022-10-30T07:09:46.081Z,17.00
2022-10-30T07:12:23.751Z,11.93
2022-10-30T07:15:07.940Z,10.07
2022-10-30T07:18:01.660Z,12.43
2022-10-30T07:20:34.521Z,13.95
2022-10-30T07:23:06.871Z,14.53
2022-10-30T07:25:41.346Z,15.13
2022-10-30T07:28:07.896Z,15.55
2022-10-30T07:30:34.458Z,11.35
2022-10-30T07:33:03.474Z,15.52
2022-10-30T07:35:31.799Z,14.10
2022-10-30T07:38:04.217Z,13.07
2022-10-30T07:40:53.324Z,13.38
2022-10-30T07:43:19.875Z,13.95
2022-10-30T07:45:59.650Z,12.32
2022-10-30T07:48:26.084Z,14.73
2022-10-30T07:50:52.531Z,12.65
2022-10-30T07:53:19.037Z,14.00
2022-10-30T07:55:45.464Z,14.70
2022-10-30T07:58:11.856Z,12.23
2022-10-30T08:00:38.384Z,16.70
2022-10-30T08:03:06.281Z,19.50
2022-10-30T08:05:39.023Z,14.43
2022-10-30T08:08:06.057Z,13.73
2022-10-30T08:10:39.812Z,15.25
2022-10-30T08:13:07.635Z,17.40
2022-10-30T08:15:34.316Z,18.88
2022-10-30T08:18:01.882Z,17.05
2022-10-30T08:20:39.717Z,16.92
2022-10-30T08:23:14.231Z,14.48
2022-10-30T08:25:47.232Z,15.97
2022-10-30T08:28:19.183Z,17.05
2022-10-30T08:30:58.552Z,19.42
2022-10-30T08:33:25.003Z,15.80
2022-10-30T08:35:53.766Z,14.93
2022-10-30T08:38:20.538Z,14.47
2022-10-30T08:40:50.595Z,15.80
2022-10-30T08:43:17.505Z,13.43
2022-10-30T08:45:44.103Z,20.10
2022-10-30T08:48:16.023Z,15.50
2022-10-30T08:50:42.512Z,14.17
2022-10-30T08:53:14.106Z,13.63
2022-10-30T08:55:43.951Z,17.20
2022-10-30T08:58:10.501Z,15.35
2022-10-30T09:00:36.999Z,15.18
2022-10-30T09:03:04.042Z,16.30
2022-10-30T09:05:58.405Z,16.17
2022-10-30T09:08:25.118Z,13.70
2022-10-30T09:11:00.991Z,15.15
2022-10-30T09:13:32.744Z,14.48
2022-10-30T09:16:01.310Z,14.80
2022-10-30T09:18:28.064Z,16.42
2022-10-30T09:20:54.726Z,17.67
2022-10-30T09:23:21.281Z,19.35
2022-10-30T09:25:47.718Z,17.90
2022-10-30T09:28:14.308Z,18.93
2022-10-30T09:30:40.759Z,16.15
2022-10-30T09:33:07.204Z,16.50
2022-10-30T09:35:34.052Z,16.48
2022-10-30T09:38:05.156Z,15.07
2022-10-30T09:41:14.403Z,14.23
2022-10-30T09:44:21.551Z,22.05
2022-10-30T09:47:40.948Z,17.02
2022-10-30T09:50:35.729Z,15.68
2022-10-30T09:53:42.091Z,14.18
2022-10-30T09:56:43.180Z,16.53
2022-10-30T09:59:20.112Z,17.20
2022-10-30T10:02:34.515Z,16.98
2022-10-30T10:05:07.011Z,12.27
2022-10-30T10:07:49.728Z,14.63
2022-10-30T10:10:25.293Z,16.30
2022-10-30T10:12:58.693Z,14.50
2022-10-30T10:15:41.751Z,16.92
2022-10-30T10:18:19.186Z,22.73
2022-10-30T10:20:50.348Z,17.08
2022-10-30T10:23:30.713Z,17.00
2022-10-30T10:26:00.706Z,19.05
2022-10-30T10:28:55.947Z,18.20
2022-10-30T10:31:45.210Z,15.98
2022-10-30T10:34:35.691Z,16.10
2022-10-30T10:37:30.760Z,18.97
2022-10-30T10:40:16.531Z,14.80
2022-10-30T10:43:12.598Z,12.52
2022-10-30T10:45:53.542Z,19.48
2022-10-30T10:48:42.400Z,16.13
2022-10-30T10:51:16.536Z,18.07
2022-10-30T10:53:46.488Z,15.80
2022-10-30T10:56:13.825Z,15.73
2022-10-30T10:58:52.178Z,16.75
2022-10-30T11:01:23.651Z,19.60
2022-10-30T11:04:11.217Z,17.07
2022-10-30T11:06:43.821Z,20.73
2022-10-30T11:09:16.999Z,16.88
2022-10-30T11:11:43.885Z,20.33
2022-10-30T11:14:15.235Z,14.60
2022-10-30T11:17:01.694Z,17.10
2022-10-30T11:19:30.749Z,15.80
2022-10-30T11:21:58.247Z,16.77
2022-10-30T11:24:35.465Z,18.60
2022-10-30T11:27:23.365Z,18.65
2022-10-30T11:29:58.826Z,16.33
2022-10-30T11:32:30.619Z,13.55
2022-10-30T11:35:17.767Z,17.77
2022-10-30T11:37:45.951Z,16.83
2022-10-30T11:40:12.244Z,16.55
2022-10-30T11:42:42.330Z,15.77
2022-10-30T11:45:31.566Z,19.20
2022-10-30T11:48:02.641Z,13.05
2022-10-30T11:50:31.652Z,15.40
2022-10-30T11:53:10.474Z,17.10
2022-10-30T11:55:40.054Z,19.93
2022-10-30T11:58:11.494Z,16.33
2022-10-30T12:00:40.935Z,15.88
2022-10-30T12:03:29.196Z,14.73
2022-10-30T12:06:11.581Z,13.90
2022-10-30T12:08:38.050Z,19.57
2022-10-30T12:11:05.704Z,16.15
2022-10-30T12:13:42.074Z,20.58
2022-10-30T12:16:14.784Z,20.23
2022-10-30T12:18:42.831Z,18.02
2022-10-30T12:21:10.098Z,20.10
2022-10-30T12:23:36.923Z,16.35
2022-10-30T12:26:11.718Z,19.42
2022-10-30T12:28:39.520Z,16.33
2022-10-30T12:31:12.295Z,15.70
2022-10-30T12:33:50.013Z,14.33
2022-10-30T12:36:27.014Z,18.08
2022-10-30T12:39:05.207Z,16.45
2022-10-30T12:41:39.758Z,14.27
2022-10-30T12:44:17.622Z,20.35
2022-10-30T12:46:50.104Z,12.63
2022-10-30T12:49:36.087Z,15.60
2022-10-30T12:52:25.678Z,14.60
2022-10-30T12:55:28.865Z,15.30
2022-10-30T12:58:37.693Z,16.17
2022-10-30T13:01:17.811Z,15.57
2022-10-30T13:03:55.499Z,19.55
2022-10-30T13:06:27.803Z,14.85
2022-10-30T13:09:15.176Z,15.70
2022-10-30T13:12:07.877Z,19.30
2022-10-30T13:14:46.987Z,15.50
2022-10-30T13:17:14.254Z,15.15
2022-10-30T13:19:42.115Z,21.90
2022-10-30T13:22:47.187Z,16.75
2022-10-30T13:25:24.342Z,15.35
2022-10-30T13:28:06.755Z,16.67
2022-10-30T13:30:46.336Z,14.75
2022-10-30T13:33:32.270Z,15.68
2022-10-30T13:36:36.397Z,15.80
2022-10-30T13:39:23.142Z,16.90
2022-10-30T13:42:12.103Z,16.23
2022-10-30T13:45:11.167Z,19.45
2022-10-30T13:47:52.534Z,17.48
2022-10-30T13:50:30.990Z,16.17
2022-10-30T13:53:01.408Z,16.15
2022-10-30T13:55:32.191Z,18.43
2022-10-30T13:58:22.433Z,18.70
2022-10-30T14:01:01.201Z,16.52
2022-10-30T14:03:33.545Z,18.00
2022-10-30T14:06:29.999Z,18.10
2022-10-30T14:09:15.438Z,18.50
2022-10-30T14:11:41.897Z,17.00
2022-10-30T14:14:14.168Z,14.00
2022-10-30T14:16:43.486Z,18.92
2022-10-30T14:19:11.712Z,19.08
2022-10-30T14:21:54.979Z,15.43
2022-10-30T14:27:05.042Z,17.90
2022-10-30T14:29:34.431Z,21.80
2022-10-30T14:32:15.993Z,18.50
2022-10-30T14:34:42.693Z,21.23
2022-10-30T14:37:09.538Z,18.92
2022-10-30T14:39:39.975Z,24.02
2022-10-30T14:42:15.167Z,18.42
2022-10-30T14:45:14.247Z,19.45
2022-10-30T14:47:51.486Z,15.73
2022-10-30T14:50:26.910Z,25.10
2022-10-30T14:53:20.308Z,20.00
2022-10-30T14:56:01.666Z,20.05
2022-10-30T14:58:32.358Z,19.42
2022-10-30T15:01:04.467Z,19.40
2022-10-30T15:03:42.059Z,24.58
2022-10-30T15:06:42.427Z,19.13
2022-10-30T15:09:28.926Z,19.00
2022-10-30T15:12:07.413Z,21.27
2022-10-30T15:14:54.156Z,18.03
2022-10-30T15:17:30.594Z,15.75
2022-10-30T15:19:59.893Z,16.58
2022-10-30T15:22:28.767Z,21.25
2022-10-30T15:24:55.779Z,16.25
2022-10-30T15:27:24.296Z,17.40
2022-10-30T15:29:55.079Z,22.83
2022-10-30T15:32:24.183Z,22.15
2022-10-30T15:35:05.187Z,17.92
2022-10-30T15:37:32.226Z,17.05
2022-10-30T15:40:19.420Z,19.67
2022-10-30T15:42:48.078Z,22.05
2022-10-30T15:45:24.041Z,20.08
2022-10-30T15:48:02.132Z,19.30
2022-10-30T15:50:28.875Z,19.40
2022-10-30T15:52:55.931Z,17.50
2022-10-30T15:55:28.419Z,17.27
2022-10-30T15:58:13.086Z,17.75
2022-10-30T16:00:40.198Z,19.23
2022-10-30T16:03:16.255Z,14.32
2022-10-30T16:05:42.904Z,19.17
2022-10-30T16:08:15.111Z,19.42
2022-10-30T16:10:44.088Z,18.38
2022-10-30T16:13:16.921Z,15.75
2022-10-30T16:15:45.878Z,15.20
2022-10-30T16:18:23.669Z,14.47
2022-10-30T16:20:53.386Z,17.33
2022-10-30T16:23:21.243Z,15.18
2022-10-30T16:25:53.287Z,17.10
2022-10-30T16:28:28.390Z,18.33
2022-10-30T16:30:58.790Z,15.93
2022-10-30T16:33:28.061Z,12.82
2022-10-30T16:35:56.009Z,18.13
2022-10-30T16:38:24.574Z,13.30
2022-10-30T16:40:51.565Z,14.18
2022-10-30T16:43:30.112Z,12.53
2022-10-30T16:46:14.825Z,12.35
2022-10-30T16:48:51.966Z,11.93
2022-10-30T16:51:18.753Z,11.40
2022-10-30T16:53:50.138Z,13.90
2022-10-30T16:56:23.844Z,14.13
2022-10-30T16:58:52.630Z,14.40
2022-10-30T17:01:24.421Z,14.43
2022-10-30T17:03:50.919Z,14.85
2022-10-30T17:06:29.610Z,12.18
2022-10-30T17:08:58.772Z,12.43
2022-10-30T17:11:36.179Z,9.73
2022-10-30T17:14:15.892Z,8.75
2022-10-30T17:16:52.262Z,9.98
2022-10-30T17:19:39.474Z,10.00
2022-10-30T17:22:13.180Z,9.40
2022-10-30T17:24:39.654Z,8.27
2022-10-30T17:27:25.829Z,9.48
2022-10-30T17:29:53.202Z,6.65
2022-10-30T17:32:20.461Z,7.70
2022-10-30T17:34:47.251Z,10.47
2022-10-30T17:37:13.835Z,8.40
2022-10-30T17:39:40.194Z,10.05
2022-10-30T17:42:06.552Z,8.32
2022-10-30T17:44:35.300Z,9.88
2022-10-30T17:47:14.028Z,8.53
2022-10-30T17:49:40.479Z,6.97
2022-10-30T17:52:10.006Z,9.32
2022-10-30T17:54:36.862Z,6.85
2022-10-30T17:57:03.343Z,9.43
2022-10-30T17:59:29.787Z,8.13
2022-10-30T18:01:56.256Z,8.13
2022-10-30T18:04:22.980Z,7.90
2022-10-30T18:06:49.411Z,9.82
2022-10-30T18:09:16.245Z,10.90
2022-10-30T18:11:42.642Z,5.63
2022-10-30T18:14:11.196Z,8.75
2022-10-30T18:16:38.211Z,14.10
2022-10-30T18:19:04.691Z,9.70
2022-10-30T18:21:31.324Z,11.80
2022-10-30T18:23:57.909Z,12.57
2022-10-30T18:26:26.534Z,12.32
2022-10-30T18:28:53.722Z,10.43
2022-10-30T18:31:22.991Z,15.05
2022-10-30T18:33:49.739Z,11.25
2022-10-30T18:36:18.866Z,13.03
2022-10-30T18:38:45.795Z,9.30
2022-10-30T18:41:17.854Z,9.27
2022-10-30T18:43:46.809Z,10.57
2022-10-30T18:46:15.061Z,10.00
2022-10-30T18:48:56.915Z,7.80
2022-10-30T18:51:46.191Z,8.55
2022-10-30T18:54:16.528Z,11.35
2022-10-30T18:56:43.381Z,15.38
2022-10-30T18:59:17.085Z,15.40
2022-10-30T19:01:43.539Z,12.83
2022-10-30T19:04:11.136Z,10.80
2022-10-30T19:06:38.863Z,13.02
2022-10-30T19:09:08.628Z,9.02
2022-10-30T19:11:37.336Z,10.13
2022-10-30T19:14:16.028Z,9.97
2022-10-30T19:16:45.481Z,10.43
2022-10-30T19:19:14.903Z,12.48
2022-10-30T19:21:51.763Z,10.40
2022-10-30T19:24:18.191Z,11.25
2022-10-30T19:26:44.635Z,10.70
2022-10-30T19:29:11.223Z,13.02
2022-10-30T19:31:37.647Z,11.27
2022-10-30T19:34:04.209Z,12.43
2022-10-30T19:36:34.450Z,14.45
2022-10-30T19:39:08.343Z,11.20
2022-10-30T19:41:35.863Z,8.40
2022-10-30T19:44:02.280Z,11.15
2022-10-30T19:46:28.750Z,11.65
2022-10-30T19:48:58.065Z,8.68
2022-10-30T19:51:26.795Z,12.50
2022-10-30T19:53:53.965Z,11.15
2022-10-30T19:56:21.284Z,13.77
2022-10-30T19:58:47.732Z,13.27
2022-10-30T20:01:14.669Z,11.05
2022-10-30T20:03:41.318Z,13.87
2022-10-30T20:06:14.894Z,13.02
2022-10-30T20:08:51.434Z,12.00
2022-10-30T20:11:37.188Z,12.65
2022-10-30T20:14:03.614Z,11.98
2022-10-30T20:16:30.091Z,11.10
2022-10-30T20:18:56.662Z,9.73
2022-10-30T20:21:23.083Z,13.35
2022-10-30T20:23:51.022Z,8.73
2022-10-30T20:26:25.883Z,10.63
2022-10-30T20:28:53.541Z,9.10
2022-10-30T20:31:20.280Z,15.30
2022-10-30T20:33:46.732Z,10.52
2022-10-30T20:36:13.655Z,12.13
2022-10-30T20:38:40.564Z,10.75
2022-10-30T20:41:07.502Z,9.37
2022-10-30T20:43:38.644Z,15.25
2022-10-30T20:46:09.407Z,9.85
2022-10-30T20:48:36.117Z,11.45
2022-10-30T20:51:03.044Z,13.90
2022-10-30T20:53:29.761Z,15.97
2022-10-30T20:55:56.804Z,19.60
2022-10-30T20:58:23.878Z,10.85
2022-10-30T21:00:50.614Z,13.43
2022-10-30T21:03:17.066Z,12.90
2022-10-30T21:05:45.656Z,11.37
2022-10-30T21:08:13.927Z,10.35
2022-10-30T21:11:01.114Z,11.27
2022-10-30T21:13:28.458Z,10.57
2022-10-30T21:16:09.742Z,9.27
2022-10-30T21:18:36.224Z,10.13
2022-10-30T21:21:04.393Z,9.48
2022-10-30T21:23:30.944Z,9.45
2022-10-30T21:26:19.378Z,9.18
2022-10-30T21:28:50.848Z,12.00
2022-10-30T21:31:25.313Z,11.07
2022-10-30T21:34:05.991Z,11.88
2022-10-30T21:36:32.439Z,10.80
2022-10-30T21:38:59.610Z,10.63
2022-10-30T21:41:26.237Z,14.35
2022-10-30T21:43:57.223Z,10.03
2022-10-30T21:46:25.700Z,11.25
2022-10-30T21:48:55.819Z,9.45
2022-10-30T21:51:27.081Z,9.32
2022-10-30T21:53:56.414Z,11.50
2022-10-30T21:56:26.642Z,8.83
2022-10-30T21:58:56.751Z,9.10
2022-10-30T22:01:27.284Z,10.98
2022-10-30T22:04:11.377Z,10.20
2022-10-30T22:06:40.599Z,12.25
2022-10-30T22:09:09.719Z,10.90
2022-10-30T22:11:36.765Z,11.70
2022-10-30T22:14:08.420Z,10.48
2022-10-30T22:16:37.962Z,7.65
2022-10-30T22:19:07.975Z,6.68
2022-10-30T22:21:34.454Z,7.37
2022-10-30T22:24:19.336Z,7.18
2022-10-30T22:26:48.812Z,6.55
2022-10-30T22:29:15.215Z,8.38
2022-10-30T22:31:49.077Z,8.35
2022-10-30T22:34:35.892Z,8.47
2022-10-30T22:37:02.337Z,7.80
2022-10-30T22:39:31.755Z,9.35
2022-10-30T22:42:01.231Z,6.97
2022-10-30T22:44:36.878Z,8.23
2022-10-30T22:47:03.361Z,7.27
2022-10-30T22:49:35.927Z,8.30
2022-10-30T22:52:11.608Z,7.40
2022-10-30T22:54:45.066Z,9.57
2022-10-30T22:57:16.592Z,7.68
2022-10-30T22:59:42.993Z,7.77
2022-10-30T23:02:09.473Z,7.32
2022-10-30T23:04:39.915Z,7.93
2022-10-30T23:07:08.664Z,9.13
2022-10-30T23:09:37.158Z,10.40
2022-10-30T23:12:32.424Z,7.13
2022-10-30T23:14:58.793Z,7.30
2022-10-30T23:17:25.242Z,8.23
2022-10-30T23:19:51.775Z,6.10
2022-10-30T23:22:25.307Z,8.70
2022-10-30T23:24:51.744Z,8.30
2022-10-30T23:27:22.337Z,6.68
2022-10-30T23:29:55.781Z,8.77
2022-10-30T23:32:22.183Z,8.50
2022-10-30T23:34:48.740Z,8.50
2022-10-30T23:37:15.278Z,9.17
2022-10-30T23:39:41.722Z,9.18
2022-10-30T23:42:09.182Z,9.27
2022-10-30T23:44:36.582Z,10.10
2022-10-30T23:47:03.159Z,11.02
2022-10-30T23:49:34.079Z,10.63
2022-10-30T23:52:13.140Z,7.95
2022-10-30T23:54:39.587Z,7.05
2022-10-30T23:57:38.003Z,8.88
